Time;durP1;ratioP1;P1;durP2;ratioP2;P2;SDS_P1;SDS_P2;PMS_P1;PMS_P2;Temp;Humidity;BMP_temperature;BMP_pressure;BME280_temperature;BME280_humidity;BME280_pressure;Samples;Min_cycle;Max_cycle;Signal;HPM_P1;HPM_P2
2021/01/03 00:04:21;;;;;;;59.80;29.00;;;5.60;92.80;;;5.61;77.32;100357.53;5022008;28;20063;-91
2021/01/03 00:07:01;;;;;;;58.05;28.92;;;5.60;92.80;;;5.64;77.20;100349.13;5063994;28;20527;-90
2021/01/03 00:10:07;;;;;;;59.00;29.23;;;5.70;92.60;;;5.63;76.87;100336.63;5064928;28;20052;-90
2021/01/03 00:13:10;;;;;;;61.35;28.27;;;5.60;92.60;;;5.62;77.34;100341.19;5065443;28;20053;-91
2021/01/03 00:16:09;;;;;;;63.45;30.10;;;5.60;92.70;;;5.64;77.31;100343.75;5065136;28;20139;-90
2021/01/03 00:18:54;;;;;;;59.13;29.50;;;5.60;92.60;;;5.69;76.91;100336.00;5065017;28;20063;-90
2021/01/03 00:21:21;;;;;;;62.63;29.55;;;5.60;92.70;;;5.65;76.97;100326.53;5064667;28;20530;-89
2021/01/03 00:23:48;;;;;;;63.08;30.52;;;5.60;92.80;;;5.68;76.74;100335.16;5064727;28;20136;-91
2021/01/03 00:26:15;;;;;;;60.65;31.35;;;5.60;92.60;;;5.65;76.81;100329.22;5064532;28;20048;-91
2021/01/03 00:28:45;;;;;;;56.13;29.85;;;5.60;92.50;;;5.68;76.70;100339.72;5064475;28;20513;-91
2021/01/03 00:31:12;;;;;;;64.93;30.02;;;5.60;92.50;;;5.66;76.79;100336.31;5064472;28;20063;-90
2021/01/03 00:33:39;;;;;;;63.60;30.40;;;5.60;92.60;;;5.65;76.76;100340.00;5064140;28;20075;-90
2021/01/03 00:36:07;;;;;;;65.57;31.85;;;5.70;92.70;;;5.69;76.93;100341.38;5064015;28;20150;-90
2021/01/03 00:38:34;;;;;;;63.88;30.50;;;5.60;92.50;;;5.71;76.93;100333.13;5064556;28;20055;-91
2021/01/03 00:41:01;;;;;;;64.45;31.13;;;5.60;92.60;;;5.71;77.15;100339.38;5062253;28;20163;-90
2021/01/03 00:43:28;;;;;;;63.70;31.60;;;5.60;92.30;;;5.71;76.69;100333.97;5063942;28;20113;-90
2021/01/03 00:45:56;;;;;;;59.65;29.98;;;5.60;92.20;;;5.73;76.72;100336.53;5063855;28;20052;-90
2021/01/03 00:48:23;;;;;;;63.75;31.33;;;5.60;92.40;;;5.66;76.94;100336.31;5065518;28;20082;-91
2021/01/03 00:50:50;;;;;;;62.75;31.58;;;5.60;92.50;;;5.69;76.64;100336.00;5063886;28;20052;-90
2021/01/03 00:53:17;;;;;;;71.13;32.30;;;5.60;92.20;;;5.72;76.69;100341.09;5065126;28;20469;-90
2021/01/03 00:55:43;;;;;;;67.93;31.58;;;5.70;92.30;;;5.75;76.38;100334.50;5068973;28;20040;-90
2021/01/03 00:58:10;;;;;;;65.88;31.25;;;5.60;92.20;;;5.76;76.70;100331.66;5067556;28;20099;-90
2021/01/03 01:00:37;;;;;;;66.13;32.00;;;5.60;92.10;;;5.75;76.75;100329.13;5067644;28;20056;-90
2021/01/03 01:03:06;;;;;;;71.00;33.25;;;5.60;92.10;;;5.77;76.00;100329.81;5069193;28;20457;-90
2021/01/03 01:05:33;;;;;;;64.97;31.27;;;5.60;91.70;;;5.74;76.24;100336.38;5067394;28;20048;-91
2021/01/03 01:08:05;;;;;;;68.32;33.03;;;5.60;92.30;;;5.78;76.02;100342.31;5069208;28;20044;-90
2021/01/03 01:10:32;;;;;;;66.60;32.30;;;5.60;91.80;;;5.71;76.17;100336.69;5067922;28;20052;-89
2021/01/03 01:13:01;;;;;;;68.10;32.42;;;5.60;91.80;;;5.72;75.82;100341.09;5067529;28;20510;-90
2021/01/03 01:15:31;;;;;;;62.10;31.55;;;5.60;91.80;;;5.69;75.82;100338.69;5068581;28;20044;-90
2021/01/03 01:18:02;;;;;;;69.38;32.75;;;5.60;91.70;;;5.70;75.99;100335.00;5067028;28;20480;-90
2021/01/03 01:20:33;;;;;;;63.50;32.42;;;5.60;91.40;;;5.72;75.78;100337.56;5068454;28;20043;-90
2021/01/03 01:23:01;;;;;;;71.68;32.13;;;5.60;91.70;;;5.77;75.59;100335.19;5067424;28;20425;-89
2021/01/03 01:25:30;;;;;;;65.60;31.65;;;5.60;91.40;;;5.75;75.45;100329.97;5067064;28;20064;-89
2021/01/03 01:27:58;;;;;;;68.75;31.73;;;5.60;91.30;;;5.69;75.54;100325.19;5067094;28;20159;-90
2021/01/03 01:30:27;;;;;;;59.78;30.40;;;5.60;91.60;;;5.64;75.87;100338.34;5067481;28;20040;-90
2021/01/03 01:32:54;;;;;;;63.55;31.70;;;5.60;91.70;;;5.65;75.98;100350.81;5067053;28;20059;-91
2021/01/03 01:35:53;;;;;;;63.85;31.05;;;5.60;91.70;;;5.68;75.67;100345.13;5067300;28;20452;-91
2021/01/03 01:38:21;;;;;;;65.90;32.33;;;5.60;91.10;;;5.66;75.74;100341.72;5067199;28;20121;-91
2021/01/03 01:40:48;;;;;;;61.85;31.10;;;5.60;91.10;;;5.63;75.39;100340.16;5067339;28;20060;-90
2021/01/03 01:43:18;;;;;;;64.25;31.70;;;5.60;91.30;;;5.66;75.94;100342.56;5069072;28;20040;-91
2021/01/03 01:45:47;;;;;;;61.15;30.73;;;5.60;91.20;;;5.66;75.61;100344.44;5069736;28;20037;-91
2021/01/03 01:48:17;;;;;;;62.20;31.20;;;5.60;91.40;;;5.61;75.93;100339.47;5069178;28;20117;-90
2021/01/03 01:50:49;;;;;;;61.65;31.67;;;5.60;91.50;;;5.59;75.84;100341.50;5069195;28;20044;-90
2021/01/03 01:53:28;;;;;;;66.72;31.98;;;5.60;91.40;;;5.66;75.53;100352.53;5067249;28;20549;-89
2021/01/03 02:00:12;;;;;;;61.80;31.67;;;5.50;90.90;;;5.66;75.46;100347.13;5041273;28;20068;-89
2021/01/03 02:02:48;;;;;;;61.50;30.55;;;5.50;91.00;;;5.70;75.42;100348.50;5067311;28;20083;-90
2021/01/03 02:05:21;;;;;;;65.15;31.42;;;5.50;91.00;;;5.71;75.44;100343.94;5067590;28;20040;-91
2021/01/03 02:07:58;;;;;;;61.38;30.98;;;5.50;90.90;;;5.70;75.05;100348.50;5067203;28;20500;-90
2021/01/03 02:10:31;;;;;;;61.75;32.95;;;5.50;91.10;;;5.74;75.03;100351.75;5068016;28;20044;-91
2021/01/03 02:13:56;;;;;;;67.63;33.90;;;5.50;91.30;;;5.65;75.37;100331.91;5068514;28;20040;-90
2021/01/03 02:16:29;;;;;;;66.05;32.90;;;5.50;91.40;;;5.64;74.77;100336.47;5063778;28;20113;-89
2021/01/03 02:18:58;;;;;;;66.78;31.60;;;5.50;91.00;;;5.60;75.31;100335.09;5068027;28;20052;-91
2021/01/03 02:22:10;;;;;;;66.28;32.25;;;5.50;91.30;;;5.61;75.15;100328.69;5068344;28;20049;-91
2021/01/03 02:25:17;;;;;;;64.35;32.55;;;5.50;91.00;;;5.66;75.11;100329.06;5068198;28;20041;-89
2021/01/03 02:28:06;;;;;;;62.85;30.55;;;5.50;90.70;;;5.66;75.06;100330.94;5055125;28;20083;-91
2021/01/03 02:30:33;;;;;;;60.30;29.83;;;5.50;90.80;;;5.66;74.67;100330.94;5067771;28;20063;-90
2021/01/03 02:33:15;;;;;;;63.45;32.38;;;5.50;90.50;;;5.67;74.35;100330.78;5066114;28;20048;-91
2021/01/03 02:35:44;;;;;;;61.95;32.45;;;5.50;90.00;;;5.67;74.33;100332.59;5065862;28;20059;-91
2021/01/03 02:38:13;;;;;;;61.42;31.25;;;5.50;90.40;;;5.68;74.46;100323.50;5065898;28;20079;-90
2021/01/03 02:40:41;;;;;;;65.10;31.90;;;5.60;90.60;;;5.60;74.57;100336.97;5067234;28;20463;-89
2021/01/03 02:43:08;;;;;;;60.53;31.08;;;5.50;90.80;;;5.59;74.93;100335.25;5067045;28;20044;-90
2021/01/03 02:45:35;;;;;;;59.88;31.75;;;5.50;90.70;;;5.64;75.29;100332.94;5067236;28;20047;-90
2021/01/03 02:48:07;;;;;;;59.17;31.35;;;5.50;90.60;;;5.66;74.97;100322.81;5066046;28;20048;-91
2021/01/03 02:50:34;;;;;;;61.50;31.73;;;5.50;90.60;;;5.61;75.08;100327.84;5067427;28;20040;-90
2021/01/03 02:53:01;;;;;;;62.38;31.48;;;5.50;90.60;;;5.62;74.78;100324.16;5066644;28;20052;-91
2021/01/03 02:55:28;;;;;;;61.42;29.65;;;5.50;90.30;;;5.62;74.48;100324.16;5065948;28;20049;-90
2021/01/03 02:57:56;;;;;;;60.42;31.33;;;5.50;90.20;;;5.58;74.93;100317.34;5066856;28;20066;-90
2021/01/03 03:00:27;;;;;;;62.47;32.20;;;5.40;90.50;;;5.60;74.53;100320.75;5066657;28;20394;-90
2021/01/03 03:02:54;;;;;;;56.25;29.70;;;5.50;90.20;;;5.64;74.06;100320.28;5065293;28;20147;-90
2021/01/03 03:06:03;;;;;;;61.28;31.17;;;5.40;89.50;;;5.60;74.23;100323.47;5066963;28;20114;-91
2021/01/03 03:08:30;;;;;;;54.33;28.90;;;5.40;90.10;;;5.57;74.22;100323.75;5063242;28;20072;-91
2021/01/03 03:15:10;;;;;;;56.28;28.88;;;5.40;90.10;;;5.52;74.06;100321.56;5045096;28;20057;-90
2021/01/03 03:17:55;;;;;;;55.85;28.13;;;5.50;89.20;;;5.59;73.76;100317.19;5065962;28;20444;-91
2021/01/03 03:25:20;;;;;;;57.10;28.85;;;5.40;89.30;;;5.61;73.15;100322.44;4981656;28;20095;-90
2021/01/03 03:28:00;;;;;;;55.67;29.45;;;5.40;89.40;;;5.59;73.43;100309.09;4984998;28;20496;-91
2021/01/03 03:30:46;;;;;;;55.42;28.13;;;5.40;89.00;;;5.57;73.36;100307.56;5008471;28;20048;-90
2021/01/03 03:33:45;;;;;;;56.72;27.63;;;5.40;89.50;;;5.51;73.63;100309.03;5066899;28;20052;-91
2021/01/03 03:36:36;;;;;;;52.58;27.17;;;5.40;89.50;;;5.54;73.39;100302.47;5066985;28;20063;-90
2021/01/03 03:39:04;;;;;;;57.45;27.52;;;5.40;88.70;;;5.54;72.95;100302.47;5065281;28;20052;-89
2021/01/03 03:41:49;;;;;;;48.47;26.48;;;5.40;88.30;;;5.58;73.32;100301.16;5065520;28;20049;-90
2021/01/03 03:45:16;;;;;;;53.20;26.70;;;5.30;88.50;;;5.53;72.65;100295.41;5065253;28;20053;-90
2021/01/03 03:48:08;;;;;;;52.67;26.05;;;5.40;88.30;;;5.55;72.69;100296.91;5021689;28;20041;-91
2021/01/03 03:50:35;;;;;;;46.80;25.05;;;5.30;88.10;;;5.56;72.23;100292.38;5065199;28;20055;-90
2021/01/03 03:53:02;;;;;;;45.90;24.13;;;5.50;88.30;;;5.55;72.66;100296.09;5065304;28;20056;-90
2021/01/03 03:58:45;;;;;;;45.90;23.30;;;5.40;87.70;;;5.56;71.69;100292.38;5063395;28;20064;-91
2021/01/03 04:01:13;;;;;;;45.60;22.98;;;5.30;87.40;;;5.49;72.04;100293.00;5064934;28;20567;-90
2021/01/03 04:03:44;;;;;;;43.38;23.05;;;5.40;87.50;;;5.54;72.27;100286.28;5066825;28;20367;-90
2021/01/03 04:06:12;;;;;;;47.10;23.27;;;5.30;87.50;;;5.48;71.65;100294.03;5065569;28;20544;-91
2021/01/03 04:08:39;;;;;;;43.35;22.77;;;5.40;86.70;;;5.51;70.69;100290.16;5066407;28;20068;-90
2021/01/03 04:11:13;;;;;;;45.78;22.88;;;5.30;86.20;;;5.51;71.66;100289.31;5065135;28;20052;-91
2021/01/03 04:13:57;;;;;;;45.35;22.48;;;5.30;87.40;;;5.51;71.51;100286.63;5065894;28;20048;-90
2021/01/03 04:16:31;;;;;;;42.10;21.98;;;5.40;86.90;;;5.49;71.54;100287.59;5064262;28;20125;-91
2021/01/03 04:18:59;;;;;;;41.72;22.48;;;5.40;87.10;;;5.51;71.21;100286.63;5064697;28;20040;-91
2021/01/03 04:22:47;;;;;;;41.03;21.40;;;5.40;86.10;;;5.53;71.12;100279.19;5067342;28;20039;-90
2021/01/03 04:26:05;;;;;;;43.60;23.00;;;5.40;86.40;;;5.53;71.39;100290.00;4996680;28;20051;-90
2021/01/03 04:28:33;;;;;;;44.83;22.30;;;5.40;87.00;;;5.52;71.40;100299.09;4932711;29;20150;-91
2021/01/03 04:31:52;;;;;;;38.88;20.67;;;5.40;87.10;;;5.52;71.28;100301.78;4985741;28;20054;-90
2021/01/03 04:35:28;;;;;;;46.17;22.77;;;5.40;86.40;;;5.55;71.36;100299.63;4932077;29;20812;-89
2021/01/03 04:37:57;;;;;;;41.08;21.40;;;5.40;87.00;;;5.54;71.65;100294.38;4934291;28;20092;-89
2021/01/03 04:40:28;;;;;;;44.15;22.33;;;5.40;87.50;;;5.58;71.69;100301.16;4993269;28;20045;-90
2021/01/03 04:42:58;;;;;;;42.00;22.35;;;5.30;87.80;;;5.55;72.41;100296.09;4993208;28;20050;-89
2021/01/03 04:45:31;;;;;;;41.30;22.58;;;5.30;88.30;;;5.49;72.61;100295.69;4993101;28;20057;-90
2021/01/03 04:48:02;;;;;;;47.70;24.00;;;5.40;88.60;;;5.48;72.85;100299.41;4993364;28;20053;-90
2021/01/03 04:51:13;;;;;;;46.30;24.77;;;5.40;88.40;;;5.48;72.64;100302.13;4993160;28;20049;-91
2021/01/03 04:53:48;;;;;;;50.97;25.45;;;5.40;88.00;;;5.53;72.43;100300.78;4984836;28;20053;-90
2021/01/03 04:56:24;;;;;;;49.13;24.90;;;5.40;87.90;;;5.54;72.31;100299.78;4993013;28;20825;-90
2021/01/03 04:59:12;;;;;;;45.40;24.67;;;5.40;87.60;;;5.46;72.67;100303.25;5023182;28;20048;-91
2021/01/03 05:02:32;;;;;;;48.22;24.15;;;5.40;88.10;;;5.45;73.06;100307.81;5070734;28;20048;-91
2021/01/03 05:05:26;;;;;;;49.40;24.35;;;5.40;88.40;;;5.46;72.67;100308.66;5069641;28;20040;-90
2021/01/03 05:08:04;;;;;;;46.63;23.17;;;5.40;88.30;;;5.47;72.40;100297.72;5052771;28;20070;-90
2021/01/03 05:10:34;;;;;;;47.83;24.23;;;5.40;87.90;;;5.47;72.65;100305.81;5071819;28;20044;-90
2021/01/03 05:13:22;;;;;;;44.00;23.20;;;5.40;88.00;;;5.43;72.68;100301.72;5070293;28;20048;-90
2021/01/03 05:15:50;;;;;;;44.97;24.02;;;5.40;88.40;;;5.40;72.95;100299.34;5071653;28;20049;-91
2021/01/03 05:18:16;;;;;;;51.95;24.25;;;5.40;88.10;;;5.47;72.88;100300.41;5070384;28;20045;-90
2021/01/03 05:20:53;;;;;;;43.72;22.95;;;5.40;88.60;;;5.46;72.71;100301.44;5072077;28;20059;-91
2021/01/03 05:23:24;;;;;;;47.40;24.00;;;5.40;88.10;;;5.47;72.25;100295.00;5070249;28;20089;-89
2021/01/03 05:25:53;;;;;;;44.20;24.33;;;5.40;87.60;;;5.55;72.32;100301.47;5070318;28;20056;-90
2021/01/03 05:28:26;;;;;;;44.55;23.92;;;5.40;87.30;;;5.52;71.95;100301.78;5070122;28;20055;-90
2021/01/03 05:31:08;;;;;;;40.35;21.60;;;5.40;87.50;;;5.55;71.85;100310.41;5070400;28;20040;-90
2021/01/03 05:33:36;;;;;;;42.10;22.48;;;5.40;87.50;;;5.53;71.78;100308.91;5070075;28;20231;-90
2021/01/03 05:36:03;;;;;;;42.65;22.35;;;5.40;87.10;;;5.48;71.67;100307.53;5071600;28;20076;-91
2021/01/03 05:38:38;;;;;;;41.85;21.58;;;5.40;87.30;;;5.53;71.49;100308.91;5072850;28;20053;-90
2021/01/03 05:41:15;;;;;;;42.03;21.33;;;5.40;87.10;;;5.52;71.52;100310.75;5068738;28;20067;-89
2021/01/03 05:43:43;;;;;;;40.15;20.58;;;5.30;87.10;;;5.53;71.59;100314.28;5068223;28;20044;-91
2021/01/03 05:46:19;;;;;;;44.28;20.20;;;5.40;87.20;;;5.53;71.09;100315.13;5067843;28;20504;-90
2021/01/03 05:49:00;;;;;;;38.30;19.98;;;5.40;86.50;;;5.54;70.95;100315.97;5068212;28;20135;-89
2021/01/03 05:51:39;;;;;;;35.53;18.80;;;5.40;86.00;;;5.55;70.53;100323.06;5066912;28;20050;-90
2021/01/03 05:54:12;;;;;;;35.60;17.67;;;5.50;85.70;;;5.53;70.11;100323.22;5068174;28;20051;-91
2021/01/03 05:56:40;;;;;;;32.50;17.65;;;5.30;85.80;;;5.53;69.72;100322.38;5066928;28;20464;-90
2021/01/03 05:59:12;;;;;;;32.65;17.00;;;5.30;84.80;;;5.54;69.72;100327.63;5067166;28;20102;-90
2021/01/03 06:01:39;;;;;;;32.22;17.15;;;5.30;85.10;;;5.56;68.98;100330.16;5068300;28;20037;-91
2021/01/03 06:04:10;;;;;;;28.80;16.08;;;5.30;84.20;;;5.53;69.50;100325.09;5066606;28;20122;-91
2021/01/03 06:07:02;;;;;;;31.13;16.80;;;5.30;84.60;;;5.57;69.90;100326.47;5068143;28;20048;-89
2021/01/03 06:09:39;;;;;;;29.65;15.88;;;5.40;84.80;;;5.58;68.76;100331.72;5066512;28;20683;-90
2021/01/03 06:12:15;;;;;;;28.08;14.77;;;5.30;84.10;;;5.54;68.87;100337.56;5066351;28;20052;-90
2021/01/03 06:14:42;;;;;;;28.48;15.23;;;5.40;83.90;;;5.54;68.84;100337.56;5067374;28;20048;-90
2021/01/03 06:17:24;;;;;;;29.98;15.80;;;5.40;84.00;;;5.51;68.51;100337.91;5066282;28;20052;-91
2021/01/03 06:19:53;;;;;;;29.35;15.40;;;5.40;83.60;;;5.53;68.33;100335.88;5067395;28;20064;-89
2021/01/03 06:22:40;;;;;;;25.25;14.00;;;5.30;83.20;;;5.48;68.51;100337.22;5067488;28;20534;-90
2021/01/03 06:25:41;;;;;;;26.42;14.38;;;5.30;84.10;;;5.51;68.84;100333.34;5066084;28;20506;-90
2021/01/03 06:28:15;;;;;;;25.65;13.85;;;5.30;84.10;;;5.52;68.10;100336.88;5066117;28;20436;-90
2021/01/03 06:30:54;;;;;;;25.40;14.07;;;5.30;82.70;;;5.47;68.34;100340.91;5067583;28;20417;-91
2021/01/03 06:33:59;;;;;;;28.40;13.93;;;5.30;83.20;;;5.48;67.89;100345.31;5066323;28;20433;-90
2021/01/03 06:36:45;;;;;;;28.20;14.05;;;5.30;83.10;;;5.50;67.74;100337.03;5066305;28;20044;-91
2021/01/03 06:39:29;;;;;;;26.27;13.10;;;5.30;83.30;;;5.51;67.29;100340.59;5067422;28;20059;-90
2021/01/03 06:42:01;;;;;;;30.38;13.60;;;5.30;81.80;;;5.49;67.04;100336.19;5065819;28;20750;-90
2021/01/03 06:45:42;;;;;;;23.23;12.48;;;5.30;82.10;;;5.51;67.12;100337.91;5065720;28;20054;-90
2021/01/03 06:48:46;;;;;;;25.45;12.35;;;5.30;82.70;;;5.54;67.00;100340.25;5018750;28;20086;-89
2021/01/03 06:51:39;;;;;;;22.58;12.35;;;5.30;82.10;;;5.44;67.16;100338.50;5064601;28;20047;-91
2021/01/03 06:54:54;;;;;;;25.67;13.45;;;5.30;81.80;;;5.48;67.06;100344.44;5067094;28;20118;-91
2021/01/03 06:58:14;;;;;;;25.15;12.68;;;5.30;82.20;;;5.51;66.84;100340.59;5065845;28;20059;-90
2021/01/03 07:00:47;;;;;;;23.10;11.88;;;5.20;81.40;;;5.53;66.55;100335.88;5065704;28;20052;-91
2021/01/03 07:03:19;;;;;;;19.90;11.80;;;5.30;81.60;;;5.46;66.02;100336.50;5067877;28;20828;-92
2021/01/03 07:05:52;;;;;;;21.77;11.80;;;5.40;81.30;;;5.48;66.15;100339.91;5068835;28;20143;-90
2021/01/03 07:08:25;;;;;;;22.02;11.38;;;5.20;81.60;;;5.49;66.44;100344.28;5068075;28;20044;-93
2021/01/03 07:10:52;;;;;;;20.33;11.20;;;5.20;81.40;;;5.47;66.41;100338.19;5067692;28;20080;-92
2021/01/03 07:13:51;;;;;;;21.55;10.75;;;5.30;81.40;;;5.41;66.56;100338.00;5068122;28;20106;-90
2021/01/03 07:21:03;;;;;;;23.92;11.60;;;5.30;81.70;;;5.47;66.09;100343.59;4986352;28;20100;-91
2021/01/03 07:23:37;;;;;;;20.25;10.32;;;5.30;81.30;;;5.45;65.56;100339.38;4987006;28;20094;-91
2021/01/03 07:26:24;;;;;;;19.35;10.32;;;5.20;80.60;;;5.43;65.22;100346.78;4970791;28;20956;-91
2021/01/03 07:28:56;;;;;;;19.48;10.90;;;5.20;80.00;;;5.40;65.84;100342.50;4951919;28;20420;-92
2021/01/03 07:32:02;;;;;;;18.85;10.63;;;5.20;81.20;;;5.40;64.47;100353.31;4951214;28;20066;-91
2021/01/03 07:34:34;;;;;;;16.50;9.38;;;5.20;79.50;;;5.39;65.48;100357.03;4934721;28;20117;-93
2021/01/03 07:37:19;;;;;;;18.05;10.10;;;5.20;80.70;;;5.42;65.02;100345.06;4967452;28;20055;-92
2021/01/03 07:40:00;;;;;;;18.27;9.52;;;5.20;79.80;;;5.44;64.91;100353.84;4967917;28;20053;-92
2021/01/03 07:42:30;;;;;;;17.15;9.68;;;5.10;80.00;;;5.41;65.00;100355.00;4967969;28;20108;-93
2021/01/03 07:45:01;;;;;;;17.38;9.05;;;5.20;80.70;;;5.45;65.39;100356.41;4967880;28;20051;-93
2021/01/03 07:47:41;;;;;;;16.00;9.35;;;5.10;80.60;;;5.44;64.94;100348.44;4967255;28;20065;-92
2021/01/03 07:50:34;;;;;;;17.40;9.27;;;5.10;80.10;;;5.39;64.66;100357.03;4979021;28;20513;-92
2021/01/03 07:53:25;;;;;;;16.27;9.43;;;5.10;80.00;;;5.34;65.73;100353.94;5047596;28;20052;-91
2021/01/03 07:55:53;;;;;;;16.88;8.70;;;5.20;80.80;;;5.40;64.74;100352.47;5046891;28;20497;-92
2021/01/03 07:58:23;;;;;;;17.42;9.43;;;5.20;79.40;;;5.37;65.35;100353.63;5046873;28;20048;-92
2021/01/03 08:00:56;;;;;;;16.75;9.02;;;5.20;79.90;;;5.37;65.04;100353.63;5046690;28;20151;-92
2021/01/03 08:03:25;;;;;;;15.32;8.63;;;5.20;80.00;;;5.37;64.96;100364.44;5046229;28;20049;-92
2021/01/03 08:05:53;;;;;;;16.42;8.93;;;5.20;80.00;;;5.39;65.10;100365.13;5046625;28;20060;-91
2021/01/03 08:08:25;;;;;;;15.35;8.68;;;5.20;80.60;;;5.40;64.36;100369.50;5047364;28;20045;-91
2021/01/03 08:11:06;;;;;;;14.05;8.40;;;5.20;78.80;;;5.38;64.86;100371.50;5045419;28;20589;-88
2021/01/03 08:13:39;;;;;;;15.02;9.27;;;5.30;79.60;;;5.42;65.08;100378.28;5046517;28;20048;-89
2021/01/03 08:16:08;;;;;;;14.65;8.45;;;5.20;79.50;;;5.44;64.41;100375.44;5044862;28;20095;-88
2021/01/03 08:18:39;;;;;;;14.82;8.45;;;5.20;79.30;;;5.47;63.98;100381.38;5045902;28;20048;-92
2021/01/03 08:21:15;;;;;;;14.15;8.85;;;5.20;79.00;;;5.47;63.93;100380.53;5046348;28;20510;-87
2021/01/03 08:23:41;;;;;;;15.32;8.50;;;5.20;78.80;;;5.49;63.77;100375.84;5061513;28;20064;-90
2021/01/03 08:26:13;;;;;;;18.00;8.18;;;5.20;79.00;;;5.51;64.00;100378.38;5044201;28;20053;-88
2021/01/03 08:28:56;;;;;;;13.80;8.88;;;5.20;78.60;;;5.46;64.69;100379.69;5046939;28;20087;-89
2021/01/03 08:31:24;;;;;;;15.18;7.88;;;5.20;80.00;;;5.48;64.27;100387.63;5048579;28;20819;-90
2021/01/03 08:33:55;;;;;;;13.07;7.40;;;5.20;79.30;;;5.48;63.79;100380.38;5049496;28;20543;-90
2021/01/03 08:36:26;;;;;;;14.02;8.15;;;5.20;78.30;;;5.49;63.62;100383.94;5045089;28;20049;-90
2021/01/03 08:39:00;;;;;;;12.95;7.70;;;5.20;77.90;;;5.47;63.26;100380.53;5046981;28;20113;-88
2021/01/03 08:41:31;;;;;;;12.27;7.78;;;5.20;78.10;;;5.46;63.84;100382.41;5047374;28;20108;-89
2021/01/03 08:43:59;;;;;;;14.57;8.15;;;5.20;79.10;;;5.46;64.37;100389.63;5044573;28;20652;-87
2021/01/03 08:46:30;;;;;;;14.32;8.38;;;5.20;79.60;;;5.48;63.71;100391.19;5062035;28;20429;-89
2021/01/03 08:49:02;;;;;;;14.13;7.60;;;5.30;78.40;;;5.47;63.59;100386.78;5045347;28;20413;-88
2021/01/03 08:51:30;;;;;;;12.65;7.72;;;5.20;79.10;;;5.46;64.23;100393.19;5046018;28;20512;-87
2021/01/03 08:54:03;;;;;;;10.55;6.30;;;5.30;79.40;;;5.46;63.34;100379.69;5045820;28;20052;-90
2021/01/03 08:56:36;;;;;;;11.82;6.82;;;5.30;78.20;;;5.50;63.80;100396.41;5046915;28;20048;-89
2021/01/03 08:59:04;;;;;;;13.55;7.32;;;5.30;78.80;;;5.50;63.58;100393.72;5044088;28;20215;-89
2021/01/03 09:01:54;;;;;;;10.65;6.30;;;5.40;78.30;;;5.48;64.03;100393.00;5044143;28;20144;-89
2021/01/03 09:04:24;;;;;;;12.77;6.40;;;5.30;78.90;;;5.53;64.19;100395.28;5044017;28;20056;-88
2021/01/03 09:07:38;;;;;;;12.80;5.95;;;5.30;79.00;;;5.51;64.29;100395.41;5043808;28;20103;-89
2021/01/03 09:10:07;;;;;;;10.40;6.10;;;5.30;79.60;;;5.54;64.29;100400.50;5044152;28;20045;-88
2021/01/03 09:12:37;;;;;;;12.77;6.50;;;5.30;79.40;;;5.49;64.34;100395.56;5044323;28;20053;-89
2021/01/03 09:15:12;;;;;;;11.98;6.05;;;5.30;79.50;;;5.52;64.04;100404.34;5047328;28;20464;-90
2021/01/03 09:17:41;;;;;;;10.60;6.13;;;5.30;79.20;;;5.52;64.72;100409.75;5049230;28;20045;-91
2021/01/03 09:20:22;;;;;;;12.65;6.45;;;5.30;79.40;;;5.50;64.84;100407.19;5050451;28;20087;-90
2021/01/03 09:26:12;;;;;;;11.77;6.82;;;5.40;78.90;;;5.49;64.64;100403.66;5044233;28;20016;-91
2021/01/03 09:28:42;;;;;;;12.07;6.50;;;5.40;79.40;;;5.54;64.51;100407.75;5045403;28;20457;-90
2021/01/03 09:31:16;;;;;;;9.88;5.53;;;5.40;79.10;;;5.54;64.37;100407.75;5046762;28;20048;-90
2021/01/03 09:33:50;;;;;;;9.77;5.72;;;5.40;78.90;;;5.55;64.08;100409.47;5046549;28;20048;-90
2021/01/03 09:36:41;;;;;;;9.63;5.45;;;5.30;78.30;;;5.54;64.50;100415.84;5048000;28;20102;-90
2021/01/03 09:39:36;;;;;;;10.15;6.13;;;5.30;79.30;;;5.49;64.47;100411.75;5049021;28;20118;-89
2021/01/03 09:42:43;;;;;;;10.95;5.88;;;5.40;79.30;;;5.52;64.62;100420.56;5046730;28;20045;-90
2021/01/03 09:45:49;;;;;;;11.23;5.60;;;5.40;79.00;;;5.53;64.12;100419.56;5048864;28;20044;-89
2021/01/03 09:48:34;;;;;;;11.27;6.53;;;5.40;79.00;;;5.51;63.72;100427.81;5049234;28;20052;-89
2021/01/03 09:51:23;;;;;;;9.18;5.20;;;5.30;78.30;;;5.50;63.99;100428.78;5047579;28;20048;-91
2021/01/03 09:54:22;;;;;;;9.43;5.70;;;5.30;78.40;;;5.46;63.74;100416.63;5063923;28;20053;-89
2021/01/03 09:56:57;;;;;;;9.55;5.40;;;5.30;78.70;;;5.48;63.86;100423.56;5046852;28;20126;-90
2021/01/03 09:59:24;;;;;;;11.10;6.15;;;5.30;78.70;;;5.48;63.04;100423.56;5047853;28;20072;-89
2021/01/03 10:02:32;;;;;;;11.25;6.10;;;5.30;78.20;;;5.46;63.92;100417.47;5047157;28;20041;-89
2021/01/03 10:05:48;;;;;;;9.35;5.72;;;5.20;78.80;;;5.49;63.46;100414.47;5047199;28;20053;-88
2021/01/03 10:08:36;;;;;;;10.05;5.50;;;5.20;78.10;;;5.47;63.84;100423.72;5047012;28;20151;-90
2021/01/03 10:11:45;;;;;;;11.32;6.10;;;5.30;78.80;;;5.46;63.96;100416.63;5047168;28;20842;-90
2021/01/03 10:14:28;;;;;;;11.18;6.15;;;5.30;79.20;;;5.46;64.34;100417.47;5047087;28;20060;-89
2021/01/03 10:20:41;;;;;;;11.38;5.97;;;5.30;79.00;;;5.50;64.50;100407.19;5083746;28;20075;-91
2021/01/03 10:23:38;;;;;;;13.20;5.72;;;5.30;79.20;;;5.52;64.79;100410.63;5066712;28;20464;-90
2021/01/03 10:26:48;;;;;;;8.63;5.20;;;5.40;79.50;;;5.51;64.71;100403.50;5067281;28;20521;-90
2021/01/03 10:29:16;;;;;;;10.25;5.63;;;5.40;79.30;;;5.49;64.34;100408.22;5066951;28;20054;-90
2021/01/03 10:32:06;;;;;;;10.07;5.35;;;5.40;78.90;;;5.47;63.84;100413.78;5066960;28;20063;-90
2021/01/03 10:35:18;;;;;;;10.60;5.43;;;5.40;77.60;;;5.44;63.86;100397.88;5067862;28;20059;-89
2021/01/03 10:38:16;;;;;;;9.98;5.50;;;5.30;78.70;;;5.48;64.22;100396.59;5065974;28;20063;-90
2021/01/03 10:41:10;;;;;;;8.23;4.82;;;5.40;79.10;;;5.48;64.38;100399.28;5066687;28;20048;-90
2021/01/03 10:43:57;;;;;;;10.63;5.53;;;5.40;78.70;;;5.46;64.37;100404.00;5068371;28;20580;-91
2021/01/03 10:46:35;;;;;;;10.68;5.15;;;5.40;78.60;;;5.51;64.18;100405.38;5066574;28;20060;-90
2021/01/03 10:49:45;;;;;;;8.57;5.07;;;5.40;78.60;;;5.53;64.01;100397.97;5066635;28;20048;-90
2021/01/03 10:52:12;;;;;;;9.30;4.90;;;5.40;78.50;;;5.52;63.67;100405.22;5065493;28;20087;-89
2021/01/03 10:54:51;;;;;;;9.07;4.97;;;5.40;77.90;;;5.53;64.12;100400.66;5066582;28;20496;-90
2021/01/03 10:57:26;;;;;;;9.43;5.22;;;5.40;78.90;;;5.51;63.42;100400.81;5066621;28;20452;-90
2021/01/03 11:00:06;;;;;;;8.68;5.30;;;5.40;78.10;;;5.53;63.72;100398.81;5066723;28;20044;-91
2021/01/03 11:02:41;;;;;;;8.85;5.00;;;5.40;78.80;;;5.51;64.13;100398.13;5066489;28;20135;-90
2021/01/03 11:05:18;;;;;;;8.68;4.93;;;5.40;79.00;;;5.47;64.04;100394.88;5066317;28;20045;-90
2021/01/03 11:07:57;;;;;;;8.60;5.20;;;5.40;78.40;;;5.52;63.94;100398.97;5063605;28;20037;-89
2021/01/03 11:10:29;;;;;;;9.73;5.25;;;5.30;78.60;;;5.54;63.61;100394.25;5047521;28;20132;-90
2021/01/03 11:13:00;;;;;;;9.50;4.82;;;5.40;78.10;;;5.56;63.67;100392.25;5046565;28;20053;-91
2021/01/03 11:15:27;;;;;;;8.95;4.68;;;5.40;78.00;;;5.54;63.50;100395.13;5046275;28;20124;-88
2021/01/03 11:17:55;;;;;;;10.05;4.65;;;5.40;78.30;;;5.53;63.42;100384.47;5045415;28;20073;-88
2021/01/03 11:20:23;;;;;;;8.32;4.82;;;5.40;78.00;;;5.52;63.90;100388.16;5045527;28;20502;-88
2021/01/03 11:22:53;;;;;;;7.70;4.55;;;5.40;78.10;;;5.56;63.57;100389.53;5045729;28;20213;-87
2021/01/03 11:25:29;;;;;;;8.60;4.65;;;5.40;78.10;;;5.55;63.47;100387.88;5044627;28;20051;-88
2021/01/03 11:27:56;;;;;;;9.18;5.13;;;5.40;77.70;;;5.54;63.40;100391.53;5045268;28;20052;-87
2021/01/03 11:30:24;;;;;;;8.40;4.90;;;5.40;78.10;;;5.52;63.56;100388.16;5047292;28;20053;-87
2021/01/03 11:32:51;;;;;;;8.95;5.00;;;5.40;78.00;;;5.53;63.11;100381.78;5045926;28;20491;-87
2021/01/03 11:35:19;;;;;;;9.52;5.53;;;5.30;77.90;;;5.53;63.88;100395.28;5044972;28;20135;-88